createdAt,value
2023-03-13T00:01:45.671Z,99.90
2023-03-13T00:04:12.765Z,99.90
2023-03-13T00:06:43.132Z,99.90
2023-03-13T00:09:12.701Z,99.90
2023-03-13T00:11:40.820Z,99.90
2023-03-13T00:14:15.055Z,99.90
2023-03-13T00:16:44.315Z,99.90
2023-03-13T00:19:11.486Z,99.90
2023-03-13T00:21:41.938Z,99.90
2023-03-13T00:24:12.632Z,99.90
2023-03-13T00:26:40.968Z,99.90
2023-03-13T00:29:11.166Z,99.90
2023-03-13T00:31:38.671Z,99.90
2023-03-13T00:34:09.558Z,99.90
2023-03-13T00:36:38.709Z,99.90
2023-03-13T00:39:07.516Z,99.90
2023-03-13T00:41:37.041Z,99.90
2023-03-13T00:44:10.233Z,99.90
2023-03-13T00:46:39.291Z,99.90
2023-03-13T00:49:06.781Z,99.90
2023-03-13T00:51:33.877Z,99.90
2023-03-13T00:54:01.132Z,99.90
2023-03-13T00:56:29.431Z,99.90
2023-03-13T00:58:56.660Z,99.90
2023-03-13T01:01:26.249Z,99.90
2023-03-13T01:03:57.427Z,99.90
2023-03-13T01:06:29.987Z,99.90
2023-03-13T01:08:57.614Z,99.90
2023-03-13T01:11:30.124Z,99.90
2023-03-13T01:14:01.846Z,99.90
2023-03-13T01:16:31.825Z,99.90
2023-03-13T01:19:11.897Z,99.90
2023-03-13T01:21:44.182Z,99.90
2023-03-13T01:24:13.286Z,99.90
2023-03-13T01:26:40.687Z,99.90
2023-03-13T01:29:10.862Z,99.90
2023-03-13T01:31:41.009Z,99.90
2023-03-13T01:34:11.601Z,99.90
2023-03-13T01:36:39.806Z,99.90
2023-03-13T01:39:08.844Z,99.90
2023-03-13T01:41:38.230Z,99.90
2023-03-13T01:44:27.539Z,99.90
2023-03-13T01:46:55.646Z,99.90
2023-03-13T01:49:34.851Z,99.90
2023-03-13T01:52:09.559Z,99.90
2023-03-13T01:54:59.755Z,99.90
2023-03-13T01:57:33.628Z,99.90
2023-03-13T02:00:13.211Z,99.90
2023-03-13T02:02:48.573Z,99.90
2023-03-13T02:05:21.569Z,99.90
2023-03-13T02:07:57.216Z,99.90
2023-03-13T02:10:26.747Z,99.90
2023-03-13T02:12:54.245Z,99.90
2023-03-13T02:15:25.834Z,99.90
2023-03-13T02:17:55.051Z,99.90
2023-03-13T02:20:22.925Z,99.90
2023-03-13T02:23:27.331Z,99.90
2023-03-13T02:26:00.632Z,99.90
2023-03-13T02:28:34.051Z,99.90
2023-03-13T02:31:01.586Z,99.90
2023-03-13T02:33:39.444Z,99.90
2023-03-13T02:36:08.177Z,99.90
2023-03-13T02:38:55.316Z,99.90
2023-03-13T02:41:24.814Z,99.90
2023-03-13T02:43:51.856Z,99.90
2023-03-13T02:46:21.647Z,99.90
2023-03-13T02:48:53.055Z,99.90
2023-03-13T02:51:30.016Z,99.90
2023-03-13T02:54:01.752Z,99.90
2023-03-13T02:56:35.843Z,99.90
2023-03-13T02:59:06.987Z,99.90
2023-03-13T03:01:34.982Z,99.90
2023-03-13T03:04:04.183Z,99.90
2023-03-13T03:06:31.339Z,99.90
2023-03-13T03:08:59.790Z,99.90
2023-03-13T03:11:29.836Z,99.90
2023-03-13T03:13:57.811Z,99.90
2023-03-13T03:16:27.862Z,99.90
2023-03-13T03:18:56.037Z,99.90
2023-03-13T03:21:24.029Z,99.90
2023-03-13T03:23:51.705Z,99.90
2023-03-13T03:26:19.837Z,99.90
2023-03-13T03:28:47.253Z,99.90
2023-03-13T03:31:17.777Z,99.90
2023-03-13T03:33:47.136Z,99.90
2023-03-13T03:36:22.587Z,99.90
2023-03-13T03:38:55.858Z,99.90
2023-03-13T03:41:23.056Z,99.90
2023-03-13T03:43:50.510Z,99.90
2023-03-13T03:46:19.682Z,99.90
2023-03-13T03:48:49.808Z,99.90
2023-03-13T03:51:16.983Z,99.90
2023-03-13T03:53:47.357Z,99.90
2023-03-13T03:56:14.459Z,99.90
2023-03-13T03:58:41.440Z,99.90
2023-03-13T04:01:08.643Z,99.90
2023-03-13T04:03:37.673Z,99.90
2023-03-13T04:06:10.719Z,99.90
2023-03-13T04:08:37.704Z,99.90
2023-03-13T04:11:10.662Z,99.90
2023-03-13T04:13:39.718Z,99.90
2023-03-13T04:16:09.420Z,99.90
2023-03-13T04:18:39.623Z,99.90
2023-03-13T04:21:07.242Z,99.90
2023-03-13T04:23:37.265Z,99.90
2023-03-13T04:26:04.455Z,99.90
2023-03-13T04:28:31.569Z,99.90
2023-03-13T04:31:01.463Z,99.90
2023-03-13T04:33:30.581Z,99.90
2023-03-13T04:35:58.681Z,99.90
2023-03-13T04:38:25.946Z,99.90
2023-03-13T04:40:54.029Z,99.90
2023-03-13T04:43:23.082Z,99.90
2023-03-13T04:45:55.059Z,99.90
2023-03-13T04:48:25.208Z,99.90
2023-03-13T04:50:53.224Z,99.90
2023-03-13T04:53:21.202Z,99.90
2023-03-13T04:55:51.482Z,99.90
2023-03-13T04:58:18.455Z,99.90
2023-03-13T05:00:45.524Z,99.90
2023-03-13T05:03:15.684Z,99.90
2023-03-13T05:05:42.589Z,99.90
2023-03-13T05:08:15.834Z,99.90
2023-03-13T05:10:43.596Z,99.90
2023-03-13T05:13:10.690Z,99.90
2023-03-13T05:15:37.843Z,99.90
2023-03-13T05:18:08.001Z,99.90
2023-03-13T05:20:35.017Z,99.90
2023-03-13T05:23:02.965Z,99.90
2023-03-13T05:25:32.054Z,99.90
2023-03-13T05:28:01.388Z,99.90
2023-03-13T05:30:30.395Z,99.90
2023-03-13T05:33:00.781Z,99.90
2023-03-13T05:35:27.912Z,99.90
2023-03-13T05:37:58.038Z,99.90
2023-03-13T05:40:28.081Z,99.90
2023-03-13T05:42:56.090Z,99.90
2023-03-13T05:45:26.099Z,99.90
2023-03-13T05:47:56.438Z,99.90
2023-03-13T05:50:26.024Z,99.90
2023-03-13T05:52:53.575Z,99.90
2023-03-13T05:55:20.785Z,99.90
2023-03-13T05:57:50.825Z,99.90
2023-03-13T06:00:21.274Z,99.90
2023-03-13T06:02:49.325Z,99.90
2023-03-13T06:05:17.377Z,99.90
2023-03-13T06:07:45.385Z,99.90
2023-03-13T06:10:12.714Z,99.90
2023-03-13T06:12:40.732Z,99.90
2023-03-13T06:15:11.991Z,99.90
2023-03-13T06:17:42.244Z,99.90
2023-03-13T06:20:10.216Z,99.90
2023-03-13T06:22:37.441Z,99.90
2023-03-13T06:25:07.895Z,99.90
2023-03-13T06:27:36.313Z,99.90
2023-03-13T06:30:04.184Z,99.90
2023-03-13T06:32:31.497Z,99.90
2023-03-13T06:35:01.682Z,99.90
2023-03-13T06:37:31.769Z,99.90
2023-03-13T06:39:59.881Z,99.90
2023-03-13T06:42:28.037Z,99.90
2023-03-13T06:44:57.097Z,99.90
2023-03-13T06:47:27.208Z,99.90
2023-03-13T06:49:54.315Z,99.90
2023-03-13T06:52:26.490Z,99.90
2023-03-13T06:55:01.258Z,99.90
2023-03-13T06:57:31.380Z,99.90
2023-03-13T07:00:00.410Z,99.90
2023-03-13T07:02:30.485Z,99.90
2023-03-13T07:04:58.506Z,99.90
2023-03-13T07:07:33.198Z,99.90
2023-03-13T07:10:04.994Z,99.90
2023-03-13T07:12:35.594Z,99.90
2023-03-13T07:15:02.951Z,99.90
2023-03-13T07:17:33.152Z,99.90
2023-03-13T07:20:01.279Z,99.90
2023-03-13T07:22:29.421Z,99.90
2023-03-13T07:24:59.506Z,99.90
2023-03-13T07:27:26.640Z,99.90
2023-03-13T07:29:56.910Z,99.90
2023-03-13T07:32:33.441Z,99.90
2023-03-13T07:35:04.858Z,99.90
2023-03-13T07:37:35.026Z,99.90
2023-03-13T07:40:02.079Z,99.90
2023-03-13T07:42:29.229Z,99.90
2023-03-13T07:44:59.300Z,99.90
2023-03-13T07:47:26.348Z,99.90
2023-03-13T07:49:54.097Z,99.90
2023-03-13T07:52:21.179Z,99.90
2023-03-13T07:54:50.332Z,99.90
2023-03-13T07:57:17.733Z,99.90
2023-03-13T07:59:45.716Z,99.90
2023-03-13T08:02:14.036Z,99.90
2023-03-13T08:04:41.340Z,99.90
2023-03-13T08:07:12.844Z,99.90
2023-03-13T08:09:41.530Z,99.90
2023-03-13T08:12:09.053Z,99.90
2023-03-13T08:14:37.040Z,99.90
2023-03-13T08:17:04.141Z,99.90
2023-03-13T08:19:38.628Z,99.90
2023-03-13T08:22:05.763Z,99.90
2023-03-13T08:24:32.664Z,99.90
2023-03-13T08:26:59.753Z,99.90
2023-03-13T08:29:28.795Z,99.90
2023-03-13T08:31:55.841Z,99.90
2023-03-13T08:34:23.902Z,99.90
2023-03-13T08:36:53.963Z,99.90
2023-03-13T08:39:21.476Z,99.90
2023-03-13T08:41:49.043Z,99.90
2023-03-13T08:44:18.431Z,99.90
2023-03-13T08:46:45.759Z,99.90
2023-03-13T08:49:13.630Z,99.90
2023-03-13T08:51:42.755Z,99.90
2023-03-13T08:54:15.941Z,99.90
2023-03-13T08:56:44.137Z,99.90
2023-03-13T08:59:15.699Z,99.90
2023-03-13T09:01:52.164Z,99.90
2023-03-13T09:04:21.198Z,99.90
2023-03-13T09:06:49.543Z,99.90
2023-03-13T09:09:16.593Z,99.90
2023-03-13T09:11:45.874Z,99.90
2023-03-13T09:14:13.877Z,99.90
2023-03-13T09:16:46.478Z,99.90
2023-03-13T09:19:15.600Z,99.90
2023-03-13T09:21:46.595Z,99.90
2023-03-13T09:24:15.063Z,99.90
2023-03-13T09:26:48.991Z,99.90
2023-03-13T09:29:25.240Z,99.90
2023-03-13T09:31:55.190Z,99.90
2023-03-13T09:34:25.744Z,99.90
2023-03-13T09:36:55.697Z,99.90
2023-03-13T09:39:22.644Z,99.90
2023-03-13T09:42:10.179Z,99.90
2023-03-13T09:45:09.922Z,99.90
2023-03-13T09:47:50.675Z,99.90
2023-03-13T09:50:29.259Z,99.90
2023-03-13T09:53:06.049Z,99.90
2023-03-13T09:55:36.874Z,99.90
2023-03-13T09:58:21.857Z,99.90
2023-03-13T10:01:03.423Z,99.90
2023-03-13T10:03:44.281Z,99.80
2023-03-13T10:06:35.476Z,99.90
2023-03-13T10:09:02.937Z,99.90
2023-03-13T10:12:15.186Z,99.90
2023-03-13T10:15:07.208Z,99.90
2023-03-13T10:17:39.339Z,99.90
2023-03-13T10:20:22.872Z,99.90
2023-03-13T10:22:58.670Z,99.90
2023-03-13T10:25:39.331Z,97.40
2023-03-13T10:28:14.892Z,96.10
2023-03-13T10:30:49.417Z,96.60
2023-03-13T10:33:26.967Z,97.20
2023-03-13T10:36:07.251Z,98.70
2023-03-13T10:38:56.121Z,98.50
2023-03-13T10:41:36.594Z,98.00
2023-03-13T10:44:30.760Z,98.00
2023-03-13T10:47:02.154Z,97.50
2023-03-13T10:49:32.647Z,96.80
2023-03-13T10:52:08.101Z,96.50
2023-03-13T10:54:40.045Z,96.10
2023-03-13T10:57:25.496Z,96.30
2023-03-13T10:59:56.052Z,96.30
2023-03-13T11:02:35.760Z,95.00
2023-03-13T11:05:23.937Z,94.70
2023-03-13T11:07:52.300Z,93.30
2023-03-13T11:10:23.671Z,93.10
2023-03-13T11:12:53.137Z,92.30
2023-03-13T11:15:48.434Z,91.70
2023-03-13T11:18:29.469Z,91.80
2023-03-13T11:21:08.710Z,91.60
2023-03-13T11:23:52.591Z,91.10
2023-03-13T11:26:40.344Z,91.30
2023-03-13T11:29:21.898Z,91.10
2023-03-13T11:32:00.661Z,91.50
2023-03-13T11:34:59.769Z,92.20
2023-03-13T11:37:31.526Z,92.30
2023-03-13T11:39:58.510Z,92.70
2023-03-13T11:42:35.572Z,92.50
2023-03-13T11:45:37.812Z,92.60
2023-03-13T11:48:52.032Z,92.90
2023-03-13T11:51:46.386Z,93.10
2023-03-13T11:54:50.543Z,93.00
2023-03-13T11:57:35.365Z,93.20
2023-03-13T12:00:26.185Z,93.90
2023-03-13T12:03:16.490Z,93.10
2023-03-13T12:05:57.530Z,92.80
2023-03-13T12:08:30.746Z,91.80
2023-03-13T12:11:25.978Z,92.60
2023-03-13T12:14:04.455Z,93.20
2023-03-13T12:16:51.519Z,93.70
2023-03-13T12:19:41.357Z,93.40
2023-03-13T12:22:23.429Z,93.00
2023-03-13T12:25:06.957Z,93.10
2023-03-13T12:27:43.179Z,92.70
2023-03-13T12:30:33.909Z,93.30
2023-03-13T12:33:16.845Z,93.00
2023-03-13T12:35:52.220Z,93.20
2023-03-13T12:38:30.958Z,93.20
2023-03-13T12:41:24.832Z,93.60
2023-03-13T12:44:07.766Z,94.10
2023-03-13T12:46:57.828Z,94.20
2023-03-13T12:49:57.103Z,94.00
2023-03-13T12:53:01.564Z,94.50
2023-03-13T12:55:52.758Z,94.60
2023-03-13T12:58:45.263Z,94.30
2023-03-13T13:01:33.817Z,94.20
2023-03-13T13:04:07.326Z,94.80
2023-03-13T13:06:55.217Z,94.70
2023-03-13T13:09:32.725Z,94.40
2023-03-13T13:12:20.025Z,94.40
2023-03-13T13:14:50.258Z,94.60
2023-03-13T13:17:17.394Z,94.50
2023-03-13T13:19:48.555Z,94.00
2023-03-13T13:22:36.758Z,93.90
2023-03-13T13:25:11.093Z,94.00
2023-03-13T13:27:41.064Z,93.60
2023-03-13T13:30:23.976Z,94.00
2023-03-13T13:33:18.753Z,93.90
2023-03-13T13:35:48.007Z,94.30
2023-03-13T13:38:18.136Z,94.20
2023-03-13T13:41:04.140Z,94.20
2023-03-13T13:43:36.211Z,94.20
2023-03-13T13:46:16.123Z,94.20
2023-03-13T13:48:45.528Z,94.50
2023-03-13T13:51:14.191Z,94.00
2023-03-13T13:53:45.186Z,93.90
2023-03-13T13:56:36.852Z,94.10
2023-03-13T13:59:05.024Z,93.20
2023-03-13T14:01:33.908Z,93.50
2023-03-13T14:04:27.145Z,93.90
2023-03-13T14:07:01.243Z,94.20
2023-03-13T14:09:40.334Z,94.80
2023-03-13T14:12:40.367Z,94.50
2023-03-13T14:15:16.719Z,94.40
2023-03-13T14:18:10.000Z,94.70
2023-03-13T14:20:38.641Z,94.70
2023-03-13T14:23:12.000Z,94.70
2023-03-13T14:25:48.999Z,94.50
2023-03-13T14:28:35.078Z,94.20
2023-03-13T14:31:02.171Z,94.10
2023-03-13T14:33:29.380Z,94.10
2023-03-13T14:35:57.948Z,94.40
2023-03-13T14:38:27.446Z,94.40
2023-03-13T14:40:55.774Z,94.40
2023-03-13T14:43:32.497Z,94.60
2023-03-13T14:46:12.907Z,94.90
2023-03-13T14:48:43.169Z,95.20
2023-03-13T14:51:24.000Z,95.10
2023-03-13T14:54:02.259Z,95.30
2023-03-13T14:56:45.307Z,95.50
2023-03-13T14:59:17.252Z,95.70
2023-03-13T15:01:47.033Z,95.80
2023-03-13T15:04:14.204Z,96.10
2023-03-13T15:06:42.335Z,96.10
2023-03-13T15:09:15.764Z,96.10
2023-03-13T15:12:06.091Z,96.40
2023-03-13T15:14:44.713Z,96.70
2023-03-13T15:17:17.545Z,96.80
2023-03-13T15:19:49.368Z,96.80
2023-03-13T15:22:22.148Z,97.00
2023-03-13T15:25:05.253Z,97.00
2023-03-13T15:27:34.612Z,97.30
2023-03-13T15:30:05.236Z,97.40
2023-03-13T15:32:39.214Z,97.40
2023-03-13T15:35:27.473Z,97.40
2023-03-13T15:37:57.382Z,97.70
2023-03-13T15:40:25.111Z,97.90
2023-03-13T15:42:54.080Z,98.10
2023-03-13T15:45:21.246Z,98.30
2023-03-13T15:47:51.331Z,98.10
2023-03-13T15:50:22.542Z,98.20
2023-03-13T15:52:52.574Z,98.40
2023-03-13T15:55:23.050Z,98.70
2023-03-13T15:57:51.135Z,98.90
2023-03-13T16:00:26.679Z,99.00
2023-03-13T16:02:53.814Z,98.80
2023-03-13T16:05:20.888Z,99.00
2023-03-13T16:07:49.016Z,98.50
2023-03-13T16:10:25.901Z,98.60
2023-03-13T16:12:54.885Z,98.90
2023-03-13T16:15:25.014Z,99.00
2023-03-13T16:17:53.976Z,99.00
2023-03-13T16:20:23.835Z,99.00
2023-03-13T16:22:53.674Z,99.30
2023-03-13T16:25:23.391Z,99.30
2023-03-13T16:27:55.146Z,99.30
2023-03-13T16:30:29.022Z,99.30
2023-03-13T16:32:56.432Z,99.50
2023-03-13T16:35:26.837Z,99.60
2023-03-13T16:37:55.824Z,99.80
2023-03-13T16:40:26.907Z,99.90
2023-03-13T16:42:56.988Z,99.90
2023-03-13T16:45:26.342Z,99.90
2023-03-13T16:47:54.605Z,99.90
2023-03-13T16:50:26.739Z,99.90
2023-03-13T16:52:54.672Z,99.90
2023-03-13T16:55:28.836Z,99.90
2023-03-13T16:57:59.875Z,99.90
2023-03-13T17:00:31.980Z,99.90
2023-03-13T17:03:02.306Z,99.90
2023-03-13T17:05:29.710Z,99.90
2023-03-13T17:07:57.837Z,99.90
2023-03-13T17:10:29.352Z,99.90
2023-03-13T17:12:56.715Z,99.90
2023-03-13T17:15:25.374Z,99.90
2023-03-13T17:17:54.318Z,99.90
2023-03-13T17:20:26.054Z,99.90
2023-03-13T17:23:01.285Z,99.90
2023-03-13T17:25:29.369Z,99.90
2023-03-13T17:27:57.426Z,99.90
2023-03-13T17:30:24.526Z,99.90
2023-03-13T17:32:51.780Z,99.90
2023-03-13T17:35:23.772Z,99.90
2023-03-13T17:37:51.072Z,99.90
2023-03-13T17:40:28.306Z,99.90
2023-03-13T17:42:57.746Z,99.90
2023-03-13T17:45:25.544Z,99.90
2023-03-13T17:47:55.872Z,99.90
2023-03-13T17:50:27.155Z,99.90
2023-03-13T17:52:55.971Z,99.90
2023-03-13T17:55:24.567Z,99.90
2023-03-13T17:57:53.833Z,99.90
2023-03-13T18:00:32.186Z,99.90
2023-03-13T18:02:59.460Z,99.90
2023-03-13T18:05:28.235Z,99.90
2023-03-13T18:07:58.390Z,99.90
2023-03-13T18:10:29.639Z,99.90
2023-03-13T18:12:57.641Z,99.90
2023-03-13T18:15:27.024Z,99.90
2023-03-13T18:17:56.277Z,99.90
2023-03-13T18:20:32.167Z,99.90
2023-03-13T18:23:01.284Z,99.90
2023-03-13T18:25:29.612Z,99.90
2023-03-13T18:27:58.112Z,99.90
2023-03-13T18:30:27.618Z,99.90
2023-03-13T18:32:54.886Z,99.90
2023-03-13T18:35:23.021Z,99.90
2023-03-13T18:37:53.219Z,99.90
2023-03-13T18:40:25.460Z,99.90
2023-03-13T18:42:53.540Z,99.90
2023-03-13T18:45:24.988Z,99.90
2023-03-13T18:47:53.707Z,99.90
2023-03-13T18:50:30.973Z,99.90
2023-03-13T18:53:00.508Z,99.90
2023-03-13T18:55:31.481Z,99.90
2023-03-13T18:58:01.769Z,99.90
2023-03-13T19:00:31.924Z,99.90
2023-03-13T19:03:02.208Z,99.90
2023-03-13T19:05:29.386Z,99.90
2023-03-13T19:07:59.567Z,99.90
2023-03-13T19:10:31.545Z,99.90
2023-03-13T19:12:59.788Z,99.90
2023-03-13T19:15:31.660Z,99.90
2023-03-13T19:18:03.550Z,99.90
2023-03-13T19:20:34.044Z,99.90
2023-03-13T19:23:01.130Z,99.90
2023-03-13T19:25:29.693Z,99.90
2023-03-13T19:27:56.628Z,99.90
2023-03-13T19:30:25.486Z,99.90
2023-03-13T19:32:55.706Z,99.90
2023-03-13T19:35:22.904Z,99.90
2023-03-13T19:37:53.102Z,99.90
2023-03-13T19:40:25.923Z,99.90
2023-03-13T19:42:54.240Z,99.90
2023-03-13T19:45:23.312Z,99.90
2023-03-13T19:47:52.421Z,99.90
2023-03-13T19:50:27.758Z,99.90
2023-03-13T19:52:54.871Z,99.90
2023-03-13T19:55:22.424Z,99.90
2023-03-13T19:57:49.568Z,99.90
2023-03-13T20:00:22.735Z,99.90
2023-03-13T20:02:52.137Z,99.90
2023-03-13T20:05:23.177Z,99.90
2023-03-13T20:07:50.298Z,99.90
2023-03-13T20:10:18.322Z,99.90
2023-03-13T20:12:48.386Z,99.90
2023-03-13T20:15:15.496Z,99.90
2023-03-13T20:17:42.587Z,99.90
2023-03-13T20:20:11.166Z,99.90
2023-03-13T20:22:38.376Z,99.90
2023-03-13T20:25:05.622Z,99.90
2023-03-13T20:27:35.282Z,99.90
2023-03-13T20:30:04.818Z,99.90
2023-03-13T20:32:32.928Z,99.90
2023-03-13T20:35:00.111Z,99.90
2023-03-13T20:37:30.204Z,99.90
2023-03-13T20:39:57.158Z,99.90
2023-03-13T20:42:24.105Z,99.90
2023-03-13T20:44:52.247Z,99.90
2023-03-13T20:47:19.659Z,99.90
2023-03-13T20:49:48.020Z,99.90
2023-03-13T20:52:20.056Z,99.90
2023-03-13T20:54:47.108Z,99.90
2023-03-13T20:57:19.606Z,99.90
2023-03-13T20:59:49.038Z,99.90
2023-03-13T21:02:19.177Z,99.90
2023-03-13T21:04:49.373Z,99.90
2023-03-13T21:07:20.627Z,99.90
2023-03-13T21:09:48.579Z,99.90
2023-03-13T21:12:15.663Z,99.90
2023-03-13T21:14:46.499Z,99.90
2023-03-13T21:17:15.939Z,99.90
2023-03-13T21:19:49.237Z,99.90
2023-03-13T21:22:16.254Z,99.90
2023-03-13T21:24:47.983Z,99.90
2023-03-13T21:27:17.675Z,99.90
2023-03-13T21:29:48.139Z,99.90
2023-03-13T21:32:15.404Z,99.90
2023-03-13T21:34:44.353Z,99.90
2023-03-13T21:37:13.223Z,99.90
2023-03-13T21:39:42.415Z,99.90
2023-03-13T21:42:17.156Z,99.90
2023-03-13T21:44:48.337Z,99.90
2023-03-13T21:47:24.370Z,99.90
2023-03-13T21:49:53.894Z,99.90
2023-03-13T21:52:24.194Z,99.90
2023-03-13T21:54:54.288Z,99.90
2023-03-13T21:57:21.264Z,99.90
2023-03-13T21:59:51.282Z,99.90
2023-03-13T22:02:18.343Z,99.90
2023-03-13T22:04:46.321Z,99.90
2023-03-13T22:07:13.381Z,99.90
2023-03-13T22:09:40.473Z,99.90
2023-03-13T22:12:07.611Z,99.90
2023-03-13T22:14:34.672Z,99.90
2023-03-13T22:17:01.889Z,99.90
2023-03-13T22:19:29.000Z,99.90
2023-03-13T22:21:57.401Z,99.90
2023-03-13T22:24:24.463Z,99.90
2023-03-13T22:26:53.441Z,99.90
2023-03-13T22:29:20.510Z,99.90
2023-03-13T22:31:49.450Z,99.90
2023-03-13T22:34:18.449Z,99.90
2023-03-13T22:36:48.447Z,99.90
2023-03-13T22:39:17.646Z,99.90
2023-03-13T22:41:44.683Z,99.90
2023-03-13T22:44:11.984Z,99.90
2023-03-13T22:46:42.123Z,99.90
2023-03-13T22:49:12.223Z,99.90
2023-03-13T22:51:45.207Z,99.90
2023-03-13T22:54:15.400Z,99.90
2023-03-13T22:56:42.389Z,99.90
2023-03-13T22:59:10.519Z,99.90
2023-03-13T23:01:38.490Z,99.90
2023-03-13T23:04:05.474Z,99.90
2023-03-13T23:06:38.839Z,99.90
2023-03-13T23:09:07.900Z,99.90
2023-03-13T23:11:37.052Z,99.90
2023-03-13T23:14:04.184Z,99.90
2023-03-13T23:16:33.314Z,99.90
2023-03-13T23:19:03.335Z,99.90
2023-03-13T23:21:30.402Z,99.90
2023-03-13T23:23:59.385Z,99.90
2023-03-13T23:26:26.426Z,99.90
2023-03-13T23:29:00.429Z,99.90
2023-03-13T23:31:29.466Z,99.90
2023-03-13T23:33:59.236Z,99.90
2023-03-13T23:36:29.228Z,99.90
2023-03-13T23:38:59.781Z,99.90
2023-03-13T23:41:27.833Z,99.90
2023-03-13T23:43:58.492Z,99.90
2023-03-13T23:46:28.596Z,99.90
2023-03-13T23:48:56.990Z,99.90
2023-03-13T23:51:24.696Z,99.90
2023-03-13T23:53:54.736Z,99.90
2023-03-13T23:56:25.596Z,99.90
2023-03-13T23:58:58.154Z,99.90
